createdAt,value
2018-02-14T00:00:53.885Z,9.60
2018-02-14T00:01:53.858Z,10.30
2018-02-14T00:02:53.944Z,9.80
2018-02-14T00:03:53.803Z,10.10
2018-02-14T00:04:53.776Z,9.80
2018-02-14T00:05:53.754Z,10.00
2018-02-14T00:06:53.723Z,10.30
2018-02-14T00:07:53.703Z,9.40
2018-02-14T00:08:53.676Z,10.00
2018-02-14T00:09:53.645Z,9.70
2018-02-14T00:10:53.618Z,10.10
2018-02-14T00:11:53.592Z,10.00
2018-02-14T00:12:53.565Z,9.80
2018-02-14T00:13:53.542Z,9.30
2018-02-14T00:14:53.520Z,9.70
2018-02-14T00:15:53.488Z,10.10
2018-02-14T00:16:53.462Z,10.40
2018-02-14T00:17:53.437Z,10.10
2018-02-14T00:18:53.493Z,9.50
2018-02-14T00:19:53.382Z,9.50
2018-02-14T00:20:53.355Z,9.70
2018-02-14T00:21:53.326Z,10.00
2018-02-14T00:22:53.313Z,10.40
2018-02-14T00:23:53.279Z,10.30
2018-02-14T00:24:53.263Z,10.10
2018-02-14T00:25:53.222Z,9.90
2018-02-14T00:26:53.196Z,9.70
2018-02-14T00:27:53.175Z,9.00
2018-02-14T00:28:53.241Z,9.80
2018-02-14T00:29:53.119Z,9.50
2018-02-14T00:30:53.098Z,10.20
2018-02-14T00:31:53.071Z,9.60
2018-02-14T00:32:53.034Z,10.20
2018-02-14T00:33:53.012Z,9.70
2018-02-14T00:34:52.982Z,9.60
2018-02-14T00:35:52.964Z,10.40
2018-02-14T00:36:52.937Z,10.10
2018-02-14T00:37:52.903Z,9.30
2018-02-14T00:38:52.874Z,10.40
2018-02-14T00:39:52.848Z,10.00
2018-02-14T00:40:52.822Z,9.40
2018-02-14T00:41:52.799Z,10.00
2018-02-14T00:42:52.767Z,9.60
2018-02-14T00:43:52.744Z,9.10
2018-02-14T00:44:52.719Z,10.60
2018-02-14T00:45:52.688Z,9.70
2018-02-14T00:46:52.669Z,10.40
2018-02-14T00:47:52.637Z,10.10
2018-02-14T00:48:52.606Z,10.20
2018-02-14T00:49:52.590Z,9.70
2018-02-14T00:50:52.560Z,10.10
2018-02-14T00:51:52.530Z,9.90
2018-02-14T00:52:52.499Z,10.10
2018-02-14T00:53:52.476Z,9.50
2018-02-14T00:54:52.447Z,9.60
2018-02-14T00:55:52.422Z,10.60
2018-02-14T00:56:52.523Z,10.30
2018-02-14T00:57:52.380Z,10.40
2018-02-14T00:58:52.339Z,10.30
2018-02-14T00:59:52.438Z,10.50
2018-02-14T01:00:52.288Z,10.50
2018-02-14T01:01:52.271Z,10.00
2018-02-14T01:02:52.240Z,10.40
2018-02-14T01:03:52.208Z,10.30
2018-02-14T01:04:52.225Z,10.00
2018-02-14T01:05:52.155Z,10.30
2018-02-14T01:06:52.125Z,11.20
2018-02-14T01:07:52.101Z,10.20
2018-02-14T01:08:52.074Z,10.70
2018-02-14T01:09:52.048Z,10.10
2018-02-14T01:10:52.112Z,10.10
2018-02-14T01:11:51.994Z,10.80
2018-02-14T01:12:51.966Z,10.90
2018-02-14T01:13:51.999Z,10.30
2018-02-14T01:14:51.918Z,10.50
2018-02-14T01:15:51.887Z,9.90
2018-02-14T01:16:51.860Z,9.80
2018-02-14T01:17:51.833Z,10.10
2018-02-14T01:18:51.805Z,10.60
2018-02-14T01:19:51.779Z,9.80
2018-02-14T01:20:51.755Z,10.70
2018-02-14T01:21:51.729Z,9.60
2018-02-14T01:22:51.699Z,10.00
2018-02-14T01:23:51.682Z,9.80
2018-02-14T01:24:51.645Z,10.20
2018-02-14T01:25:51.619Z,10.40
2018-02-14T01:26:51.597Z,10.90
2018-02-14T01:27:51.565Z,10.80
2018-02-14T01:28:51.536Z,10.40
2018-02-14T01:29:51.512Z,10.70
2018-02-14T01:30:51.486Z,9.40
2018-02-14T01:31:51.457Z,9.50
2018-02-14T01:32:51.437Z,10.80
2018-02-14T01:33:51.405Z,9.30
2018-02-14T01:34:51.376Z,9.70
2018-02-14T01:35:51.466Z,9.50
2018-02-14T01:36:51.323Z,9.80
2018-02-14T01:37:51.299Z,9.90
2018-02-14T01:38:51.322Z,9.30
2018-02-14T01:39:51.243Z,9.40
2018-02-14T01:40:51.216Z,9.90
2018-02-14T01:41:51.193Z,9.40
2018-02-14T01:42:51.164Z,9.60
2018-02-14T01:43:51.135Z,9.30
2018-02-14T01:44:51.111Z,10.00
2018-02-14T01:45:51.080Z,10.10
2018-02-14T01:46:51.056Z,10.40
2018-02-14T01:47:51.031Z,9.40
2018-02-14T01:48:51.000Z,9.50
2018-02-14T01:49:50.979Z,9.50
2018-02-14T01:50:50.950Z,9.10
2018-02-14T01:51:50.920Z,8.70
2018-02-14T01:52:50.903Z,9.50
2018-02-14T01:53:50.865Z,9.70
2018-02-14T01:54:50.840Z,9.50
2018-02-14T01:55:50.816Z,9.00
2018-02-14T01:56:50.784Z,9.30
2018-02-14T01:57:50.769Z,9.50
2018-02-14T01:58:50.731Z,8.90
2018-02-14T01:59:50.704Z,10.00
2018-02-14T02:00:50.702Z,9.90
2018-02-14T02:01:50.649Z,9.50
2018-02-14T02:02:50.622Z,9.60
2018-02-14T02:03:50.597Z,9.50
2018-02-14T02:04:50.578Z,8.40
2018-02-14T02:05:50.543Z,9.70
2018-02-14T02:06:50.513Z,9.50
2018-02-14T02:07:50.488Z,8.50
2018-02-14T02:08:50.520Z,9.20
2018-02-14T02:09:50.432Z,8.90
2018-02-14T02:10:50.407Z,9.10
2018-02-14T02:11:50.432Z,8.80
2018-02-14T02:12:50.352Z,8.90
2018-02-14T02:13:50.327Z,8.80
2018-02-14T02:14:50.296Z,8.40
2018-02-14T02:15:50.271Z,8.90
2018-02-14T02:16:50.242Z,8.20
2018-02-14T02:17:50.215Z,8.70
2018-02-14T02:18:50.191Z,9.10
2018-02-14T02:19:50.164Z,8.50
2018-02-14T02:20:50.143Z,8.40
2018-02-14T02:21:50.108Z,8.00
2018-02-14T02:22:50.080Z,8.00
2018-02-14T02:23:50.055Z,8.10
2018-02-14T02:24:50.028Z,8.60
2018-02-14T02:25:50.000Z,8.80
2018-02-14T02:26:49.994Z,8.40
2018-02-14T02:27:49.947Z,9.00
2018-02-14T02:28:49.918Z,7.90
2018-02-14T02:29:49.896Z,8.50
2018-02-14T02:30:49.867Z,8.30
2018-02-14T02:31:49.841Z,7.90
2018-02-14T02:32:49.811Z,7.70
2018-02-14T02:33:49.937Z,8.00
2018-02-14T02:34:49.762Z,7.70
2018-02-14T02:35:49.735Z,7.90
2018-02-14T02:36:49.716Z,7.90
2018-02-14T02:37:49.678Z,8.70
2018-02-14T02:38:49.649Z,8.60
2018-02-14T02:39:49.649Z,8.30
2018-02-14T02:40:49.594Z,8.10
2018-02-14T02:41:49.566Z,8.90
2018-02-14T02:42:49.543Z,8.70
2018-02-14T02:43:49.519Z,8.70
2018-02-14T02:44:49.483Z,8.10
2018-02-14T02:45:49.457Z,8.20
2018-02-14T02:46:49.433Z,8.30
2018-02-14T02:47:49.405Z,8.20
2018-02-14T02:48:49.377Z,8.30
2018-02-14T02:49:49.353Z,7.70
2018-02-14T02:50:49.322Z,7.60
2018-02-14T02:51:49.295Z,7.60
2018-02-14T02:52:49.281Z,8.50
2018-02-14T02:53:49.242Z,8.30
2018-02-14T02:54:49.223Z,8.20
2018-02-14T02:55:49.187Z,8.00
2018-02-14T02:56:49.167Z,8.20
2018-02-14T02:57:49.133Z,7.70
2018-02-14T02:58:49.106Z,8.10
2018-02-14T02:59:49.081Z,8.20
2018-02-14T03:00:49.052Z,8.00
2018-02-14T03:01:49.031Z,8.10
2018-02-14T03:02:48.995Z,7.70
2018-02-14T03:03:48.970Z,8.60
2018-02-14T03:04:48.940Z,8.50
2018-02-14T03:05:48.912Z,8.90
2018-02-14T03:06:48.886Z,8.70
2018-02-14T03:07:48.861Z,8.00
2018-02-14T03:08:48.832Z,8.20
2018-02-14T03:09:48.816Z,8.00
2018-02-14T03:10:48.781Z,8.40
2018-02-14T03:11:48.752Z,8.80
2018-02-14T03:12:48.801Z,7.80
2018-02-14T03:13:48.703Z,7.80
2018-02-14T03:14:48.668Z,9.10
2018-02-14T03:15:48.743Z,8.50
2018-02-14T03:16:48.615Z,8.30
2018-02-14T03:17:48.596Z,8.40
2018-02-14T03:18:48.561Z,8.90
2018-02-14T03:19:48.533Z,8.90
2018-02-14T03:20:48.508Z,8.60
2018-02-14T03:21:48.477Z,8.20
2018-02-14T03:22:48.451Z,8.70
2018-02-14T03:23:48.423Z,8.40
2018-02-14T03:24:48.399Z,8.70
2018-02-14T03:25:48.370Z,8.70
2018-02-14T03:26:48.346Z,8.30
2018-02-14T03:27:48.318Z,8.60
2018-02-14T03:28:48.290Z,9.10
2018-02-14T03:29:48.258Z,8.40
2018-02-14T03:30:48.232Z,8.40
2018-02-14T03:31:48.208Z,8.90
2018-02-14T03:32:48.179Z,9.30
2018-02-14T03:33:48.153Z,8.60
2018-02-14T03:34:48.134Z,8.60
2018-02-14T03:35:48.097Z,8.10
2018-02-14T03:36:48.071Z,9.30
2018-02-14T03:37:48.050Z,8.10
2018-02-14T03:38:48.017Z,8.70
2018-02-14T03:39:47.988Z,9.10
2018-02-14T03:40:47.971Z,9.20
2018-02-14T03:41:47.934Z,8.50
2018-02-14T03:42:47.905Z,9.20
2018-02-14T03:43:47.877Z,8.90
2018-02-14T03:44:47.850Z,8.90
2018-02-14T03:45:47.824Z,9.60
2018-02-14T03:46:47.885Z,9.00
2018-02-14T03:47:47.770Z,9.50
2018-02-14T03:48:47.739Z,8.80
2018-02-14T03:49:47.714Z,9.20
2018-02-14T03:50:47.686Z,9.20
2018-02-14T03:51:47.660Z,8.30
2018-02-14T03:52:47.628Z,8.50
2018-02-14T03:53:47.604Z,9.30
2018-02-14T03:54:47.599Z,9.30
2018-02-14T03:55:47.548Z,9.00
2018-02-14T03:56:47.524Z,9.20
2018-02-14T03:57:47.523Z,9.70
2018-02-14T03:58:47.475Z,8.80
2018-02-14T03:59:47.437Z,9.20
2018-02-14T04:00:47.413Z,9.80
2018-02-14T04:01:47.383Z,9.40
2018-02-14T04:02:47.358Z,8.80
2018-02-14T04:03:47.333Z,9.00
2018-02-14T04:04:47.304Z,9.30
2018-02-14T04:05:47.277Z,9.20
2018-02-14T04:06:47.243Z,9.10
2018-02-14T04:07:47.220Z,9.40
2018-02-14T04:08:47.192Z,9.50
2018-02-14T04:09:47.163Z,9.00
2018-02-14T04:10:47.145Z,9.20
2018-02-14T04:11:47.112Z,10.50
2018-02-14T04:12:47.086Z,9.80
2018-02-14T04:13:47.054Z,9.70
2018-02-14T04:14:47.026Z,9.10
2018-02-14T04:15:47.002Z,9.70
2018-02-14T04:16:46.971Z,9.60
2018-02-14T04:17:46.944Z,9.70
2018-02-14T04:18:46.916Z,9.90
2018-02-14T04:19:46.890Z,9.70
2018-02-14T04:20:46.860Z,9.50
2018-02-14T04:21:46.841Z,9.10
2018-02-14T04:22:46.820Z,9.50
2018-02-14T04:23:46.778Z,9.90
2018-02-14T04:24:46.752Z,9.60
2018-02-14T04:25:46.737Z,9.70
2018-02-14T04:26:46.695Z,9.00
2018-02-14T04:27:46.670Z,9.70
2018-02-14T04:28:46.641Z,9.70
2018-02-14T04:29:46.611Z,10.20
2018-02-14T04:30:46.584Z,10.60
2018-02-14T04:31:46.559Z,9.80
2018-02-14T04:32:46.528Z,9.50
2018-02-14T04:33:46.501Z,10.10
2018-02-14T04:34:46.474Z,10.10
2018-02-14T04:35:46.448Z,9.10
2018-02-14T04:36:46.423Z,8.70
2018-02-14T04:37:46.390Z,9.50
2018-02-14T04:38:46.361Z,9.90
2018-02-14T04:39:46.337Z,10.30
2018-02-14T04:40:46.307Z,11.20
2018-02-14T04:41:46.279Z,11.00
2018-02-14T04:42:46.255Z,9.30
2018-02-14T04:43:46.228Z,9.80
2018-02-14T04:44:46.198Z,9.70
2018-02-14T04:45:46.171Z,10.70
2018-02-14T04:46:46.143Z,9.70
2018-02-14T04:47:46.117Z,10.60
2018-02-14T04:48:46.088Z,10.60
2018-02-14T04:49:46.081Z,10.30
2018-02-14T04:50:46.034Z,9.70
2018-02-14T04:51:46.005Z,10.10
2018-02-14T04:52:45.977Z,10.40
2018-02-14T04:53:45.949Z,9.20
2018-02-14T04:54:45.924Z,10.20
2018-02-14T04:55:45.896Z,10.30
2018-02-14T04:56:45.866Z,11.00
2018-02-14T04:57:45.836Z,10.10
2018-02-14T04:58:45.841Z,10.10
2018-02-14T04:59:45.780Z,10.60
2018-02-14T05:00:45.758Z,9.60
2018-02-14T05:01:45.829Z,9.70
2018-02-14T05:02:45.696Z,10.50
2018-02-14T05:03:45.669Z,9.90
2018-02-14T05:04:45.683Z,10.40
2018-02-14T05:05:45.622Z,10.60
2018-02-14T05:06:45.586Z,10.50
2018-02-14T05:07:45.559Z,10.40
2018-02-14T05:08:45.533Z,10.80
2018-02-14T05:09:45.512Z,10.30
2018-02-14T05:10:45.475Z,9.80
2018-02-14T05:11:45.446Z,9.70
2018-02-14T05:12:45.418Z,10.20
2018-02-14T05:13:45.401Z,10.50
2018-02-14T05:14:45.363Z,10.90
2018-02-14T05:15:45.338Z,10.10
2018-02-14T05:16:45.308Z,10.60
2018-02-14T05:17:45.277Z,10.70
2018-02-14T05:18:45.252Z,10.80
2018-02-14T05:19:45.227Z,10.60
2018-02-14T05:20:45.195Z,10.40
2018-02-14T05:21:45.172Z,10.00
2018-02-14T05:22:45.143Z,10.20
2018-02-14T05:23:45.114Z,10.80
2018-02-14T05:24:45.087Z,11.30
2018-02-14T05:25:45.056Z,10.60
2018-02-14T05:26:45.028Z,10.70
2018-02-14T05:27:45.001Z,11.00
2018-02-14T05:28:44.990Z,11.30
2018-02-14T05:29:44.943Z,11.00
2018-02-14T05:30:44.917Z,11.60
2018-02-14T05:31:44.891Z,10.70
2018-02-14T05:32:44.861Z,10.80
2018-02-14T05:33:44.836Z,11.50
2018-02-14T05:34:44.807Z,10.80
2018-02-14T05:35:44.777Z,11.00
2018-02-14T05:36:44.745Z,11.10
2018-02-14T05:37:44.724Z,11.60
2018-02-14T05:38:44.701Z,10.90
2018-02-14T05:39:44.672Z,10.70
2018-02-14T05:40:44.749Z,11.20
2018-02-14T05:41:44.610Z,11.20
2018-02-14T05:42:44.579Z,10.90
2018-02-14T05:43:44.618Z,11.60
2018-02-14T05:44:44.525Z,10.70
2018-02-14T05:45:44.504Z,11.10
2018-02-14T05:46:44.471Z,11.10
2018-02-14T05:47:44.439Z,11.00
2018-02-14T05:48:44.416Z,11.40
2018-02-14T05:49:44.384Z,11.40
2018-02-14T05:50:44.366Z,11.30
2018-02-14T05:51:44.347Z,11.20
2018-02-14T05:52:44.301Z,11.50
2018-02-14T05:53:44.281Z,11.60
2018-02-14T05:54:44.243Z,10.80
2018-02-14T05:55:44.221Z,10.30
2018-02-14T05:56:44.188Z,10.90
2018-02-14T05:57:44.167Z,10.90
2018-02-14T05:58:44.133Z,11.20
2018-02-14T05:59:44.107Z,11.60
2018-02-14T06:00:44.076Z,11.60
2018-02-14T06:01:44.049Z,11.20
2018-02-14T06:02:44.022Z,12.00
2018-02-14T06:03:43.997Z,10.20
2018-02-14T06:04:43.984Z,10.40
2018-02-14T06:05:43.936Z,11.10
2018-02-14T06:06:43.908Z,11.10
2018-02-14T06:07:43.881Z,10.80
2018-02-14T06:08:43.871Z,11.60
2018-02-14T06:09:43.830Z,11.70
2018-02-14T06:10:43.799Z,11.70
2018-02-14T06:11:43.768Z,11.60
2018-02-14T06:12:43.741Z,11.10
2018-02-14T06:13:43.716Z,11.30
2018-02-14T06:14:43.684Z,11.30
2018-02-14T06:15:43.657Z,11.30
2018-02-14T06:16:43.627Z,12.30
2018-02-14T06:17:43.600Z,10.90
2018-02-14T06:18:43.575Z,11.70
2018-02-14T06:19:43.564Z,11.50
2018-02-14T06:20:43.515Z,11.80
2018-02-14T06:21:43.498Z,12.00
2018-02-14T06:22:43.477Z,11.40
2018-02-14T06:23:43.431Z,12.10
2018-02-14T06:24:43.403Z,11.00
2018-02-14T06:25:43.389Z,11.60
2018-02-14T06:26:43.348Z,11.60
2018-02-14T06:27:43.319Z,12.10
2018-02-14T06:28:43.295Z,12.50
2018-02-14T06:29:43.264Z,11.90
2018-02-14T06:30:43.242Z,12.00
2018-02-14T06:31:43.210Z,12.50
2018-02-14T06:32:43.180Z,11.70
2018-02-14T06:33:43.148Z,11.40
2018-02-14T06:34:43.123Z,12.00
2018-02-14T06:35:43.092Z,12.10
2018-02-14T06:36:43.066Z,11.60
2018-02-14T06:37:43.035Z,11.80
2018-02-14T06:38:43.007Z,11.80
2018-02-14T06:39:42.982Z,11.90
2018-02-14T06:40:42.961Z,12.10
2018-02-14T06:41:42.932Z,11.60
2018-02-14T06:42:42.894Z,11.20
2018-02-14T06:43:42.867Z,11.20
2018-02-14T06:44:42.836Z,12.60
2018-02-14T06:45:42.813Z,12.00
2018-02-14T06:46:42.781Z,12.40
2018-02-14T06:47:42.752Z,11.80
2018-02-14T06:48:42.723Z,13.40
2018-02-14T06:49:42.696Z,12.00
2018-02-14T06:50:42.833Z,11.30
2018-02-14T06:51:42.643Z,11.40
2018-02-14T06:52:42.611Z,12.60
2018-02-14T06:53:42.611Z,11.90
2018-02-14T06:54:42.557Z,12.50
2018-02-14T06:55:42.530Z,12.40
2018-02-14T06:56:42.503Z,12.00
2018-02-14T06:57:42.474Z,12.80
2018-02-14T06:58:42.459Z,12.80
2018-02-14T06:59:42.414Z,12.50
2018-02-14T07:00:42.388Z,12.60
2018-02-14T07:01:42.375Z,12.30
2018-02-14T07:02:42.329Z,11.90
2018-02-14T07:03:42.300Z,12.40
2018-02-14T07:04:42.271Z,13.00
2018-02-14T07:05:42.242Z,11.70
2018-02-14T07:06:42.214Z,12.90
2018-02-14T07:07:42.189Z,11.70
2018-02-14T07:08:42.178Z,12.60
2018-02-14T07:09:42.146Z,12.20
2018-02-14T07:10:42.110Z,12.90
2018-02-14T07:11:42.074Z,12.80
2018-02-14T07:12:42.043Z,12.40
2018-02-14T07:13:42.018Z,13.10
2018-02-14T07:14:41.990Z,12.90
2018-02-14T07:15:41.960Z,13.30
2018-02-14T07:16:41.933Z,10.80
2018-02-14T07:17:41.906Z,12.60
2018-02-14T07:18:41.878Z,12.30
2018-02-14T07:19:41.847Z,12.40
2018-02-14T07:20:41.818Z,12.50
2018-02-14T07:21:41.791Z,12.40
2018-02-14T07:22:41.762Z,12.60
2018-02-14T07:23:41.774Z,12.20
2018-02-14T07:24:41.706Z,11.30
2018-02-14T07:25:41.679Z,12.70
2018-02-14T07:26:41.729Z,13.50
2018-02-14T07:27:41.623Z,12.50
2018-02-14T07:28:41.593Z,12.50
2018-02-14T07:29:41.573Z,12.40
2018-02-14T07:30:41.538Z,11.60
2018-02-14T07:31:41.508Z,12.90
2018-02-14T07:32:41.481Z,12.50
2018-02-14T07:33:41.452Z,12.30
2018-02-14T07:34:41.425Z,11.70
2018-02-14T07:35:41.401Z,12.00
2018-02-14T07:36:41.378Z,11.90
2018-02-14T07:37:41.345Z,11.50
2018-02-14T07:38:41.316Z,11.30
2018-02-14T07:39:41.294Z,11.40
2018-02-14T07:40:41.284Z,12.00
2018-02-14T07:41:41.230Z,12.00
2018-02-14T07:42:41.204Z,11.90
2018-02-14T07:43:41.182Z,11.90
2018-02-14T07:44:41.148Z,12.00
2018-02-14T07:45:41.119Z,11.80
2018-02-14T07:46:41.092Z,12.30
2018-02-14T07:47:41.064Z,11.30
2018-02-14T07:48:41.036Z,12.20
2018-02-14T07:49:41.007Z,11.10
2018-02-14T07:50:40.978Z,11.60
2018-02-14T07:51:40.954Z,11.80
2018-02-14T07:52:40.922Z,11.50
2018-02-14T07:53:40.896Z,12.10
2018-02-14T07:54:40.869Z,12.40
2018-02-14T07:55:40.841Z,10.80
2018-02-14T07:56:40.812Z,11.80
2018-02-14T07:57:40.791Z,11.00
2018-02-14T07:58:40.757Z,11.40
2018-02-14T07:59:40.732Z,10.60
2018-02-14T08:00:40.701Z,11.30
2018-02-14T08:01:40.674Z,11.50
2018-02-14T08:02:40.647Z,11.20
2018-02-14T08:03:40.621Z,11.90
2018-02-14T08:04:40.611Z,10.90
2018-02-14T08:05:40.653Z,10.90
2018-02-14T08:06:40.544Z,10.80
2018-02-14T08:07:40.519Z,11.30
2018-02-14T08:08:40.533Z,12.10
2018-02-14T08:09:40.451Z,12.50
2018-02-14T08:10:40.423Z,11.20
2018-02-14T08:11:40.407Z,12.20
2018-02-14T08:12:40.370Z,10.70
2018-02-14T08:13:40.341Z,11.90
2018-02-14T08:14:40.316Z,11.50
2018-02-14T08:15:40.289Z,10.10
2018-02-14T08:16:40.261Z,11.50
2018-02-14T08:17:40.231Z,11.70
2018-02-14T08:18:40.210Z,12.00
2018-02-14T08:19:40.185Z,11.00
2018-02-14T08:20:40.160Z,11.70
2018-02-14T08:21:40.130Z,11.20
2018-02-14T08:22:40.092Z,11.10
2018-02-14T08:23:40.063Z,10.90
2018-02-14T08:24:40.039Z,12.20
2018-02-14T08:25:40.009Z,11.50
2018-02-14T08:26:39.981Z,10.80
2018-02-14T08:27:39.954Z,11.00
2018-02-14T08:28:39.936Z,10.40
2018-02-14T08:29:39.905Z,10.20
2018-02-14T08:30:40.025Z,11.60
2018-02-14T08:31:39.851Z,11.50
2018-02-14T08:32:39.819Z,11.80
2018-02-14T08:33:39.810Z,11.80
2018-02-14T08:34:39.763Z,11.90
2018-02-14T08:35:39.733Z,11.30
2018-02-14T08:36:39.722Z,11.90
2018-02-14T08:37:39.687Z,11.10
2018-02-14T08:38:39.653Z,12.00
2018-02-14T08:39:39.627Z,11.20
2018-02-14T08:40:39.598Z,11.70
2018-02-14T08:41:39.569Z,11.70
2018-02-14T08:42:39.547Z,12.30
2018-02-14T08:43:39.520Z,11.40
2018-02-14T08:44:39.496Z,11.70
2018-02-14T08:45:39.462Z,10.80
2018-02-14T08:46:39.434Z,11.60
2018-02-14T08:47:39.432Z,10.80
2018-02-14T08:48:39.380Z,12.10
2018-02-14T08:49:39.355Z,12.40
2018-02-14T08:50:39.325Z,11.10
2018-02-14T08:51:39.306Z,10.90
2018-02-14T08:52:39.278Z,11.80
2018-02-14T08:53:39.244Z,11.70
2018-02-14T08:54:39.217Z,12.00
2018-02-14T08:55:39.198Z,11.60
2018-02-14T08:56:39.164Z,11.20
2018-02-14T08:57:39.134Z,10.30
2018-02-14T08:58:39.117Z,11.00
2018-02-14T08:59:39.093Z,10.60
2018-02-14T09:00:39.054Z,11.20
2018-02-14T09:01:39.034Z,11.00
2018-02-14T09:02:38.999Z,10.10
2018-02-14T09:03:38.974Z,11.30
2018-02-14T09:04:38.946Z,10.60
2018-02-14T09:05:38.932Z,10.00
2018-02-14T09:06:38.896Z,9.30
2018-02-14T09:07:38.869Z,11.40
2018-02-14T09:08:38.845Z,10.40
2018-02-14T09:09:38.823Z,10.50
2018-02-14T09:10:38.785Z,11.40
2018-02-14T09:11:38.762Z,11.20
2018-02-14T09:12:38.751Z,10.90
2018-02-14T09:13:38.707Z,11.00
2018-02-14T09:14:38.685Z,10.20
2018-02-14T09:15:38.653Z,10.30
2018-02-14T09:16:38.624Z,10.20
2018-02-14T09:17:38.598Z,10.80
2018-02-14T09:18:38.573Z,10.00
2018-02-14T09:19:38.544Z,10.40
2018-02-14T09:20:38.516Z,10.20
2018-02-14T09:21:38.492Z,10.40
2018-02-14T09:22:38.466Z,10.70
2018-02-14T09:23:38.446Z,10.50
2018-02-14T09:24:38.410Z,10.50
2018-02-14T09:25:38.383Z,10.10
2018-02-14T09:26:38.360Z,11.10
2018-02-14T09:27:38.332Z,10.70
2018-02-14T09:28:38.306Z,11.10
2018-02-14T09:29:38.279Z,10.80
2018-02-14T09:30:38.252Z,9.70
2018-02-14T09:31:38.232Z,9.40
2018-02-14T09:32:38.200Z,11.30
2018-02-14T09:33:38.172Z,10.50
2018-02-14T09:34:38.233Z,9.60
2018-02-14T09:35:38.121Z,9.30
2018-02-14T09:36:38.095Z,10.10
2018-02-14T09:37:38.082Z,9.40
2018-02-14T09:38:38.044Z,9.80
2018-02-14T09:39:38.019Z,8.90
2018-02-14T09:40:37.994Z,8.60
2018-02-14T09:41:37.968Z,8.70
2018-02-14T09:42:38.067Z,9.70
2018-02-14T09:43:37.922Z,9.60
2018-02-14T09:44:37.899Z,10.20
2018-02-14T09:45:37.887Z,10.10
2018-02-14T09:46:37.852Z,9.90
2018-02-14T09:47:37.830Z,9.00
2018-02-14T09:48:37.862Z,10.00
2018-02-14T09:49:37.791Z,9.70
2018-02-14T09:50:37.763Z,8.90
2018-02-14T09:51:37.748Z,8.70
2018-02-14T09:52:37.719Z,9.20
2018-02-14T09:53:37.701Z,10.00
2018-02-14T09:54:37.682Z,8.80
2018-02-14T09:55:37.669Z,9.50
2018-02-14T09:56:37.638Z,7.80
2018-02-14T09:57:37.616Z,8.50
2018-02-14T09:58:37.605Z,9.10
2018-02-14T09:59:37.577Z,8.70
2018-02-14T10:00:37.566Z,8.10
2018-02-14T10:01:37.594Z,8.80
2018-02-14T10:02:37.519Z,9.30
2018-02-14T10:03:37.500Z,8.90
2018-02-14T10:04:37.481Z,9.00
2018-02-14T10:05:37.469Z,9.00
2018-02-14T10:06:37.448Z,9.00
2018-02-14T10:07:37.424Z,8.70
2018-02-14T10:08:37.406Z,8.90
2018-02-14T10:09:37.395Z,8.90
2018-02-14T10:10:37.367Z,8.80
2018-02-14T10:11:37.352Z,7.90
2018-02-14T10:12:37.345Z,8.40
2018-02-14T10:13:37.314Z,8.70
2018-02-14T10:14:37.297Z,9.00
2018-02-14T10:15:37.279Z,8.60
2018-02-14T10:16:37.269Z,8.40
2018-02-14T10:17:37.246Z,8.70
2018-02-14T10:18:37.226Z,8.20
2018-02-14T10:19:37.220Z,8.30
2018-02-14T10:20:37.273Z,8.60
2018-02-14T10:21:37.186Z,9.20
2018-02-14T10:22:37.159Z,8.40
2018-02-14T10:23:37.201Z,8.40
2018-02-14T10:24:37.123Z,8.80
2018-02-14T10:25:37.106Z,9.20
2018-02-14T10:26:37.097Z,9.30
2018-02-14T10:27:37.076Z,9.40
2018-02-14T10:28:37.056Z,8.00
2018-02-14T10:29:37.046Z,9.20
2018-02-14T10:30:37.022Z,8.60
2018-02-14T10:31:37.016Z,9.20
2018-02-14T10:32:36.995Z,9.00
2018-02-14T10:33:36.971Z,9.10
2018-02-14T10:34:36.955Z,8.20
2018-02-14T10:35:36.940Z,9.30
2018-02-14T10:36:36.921Z,8.90
2018-02-14T10:37:36.907Z,8.10
2018-02-14T10:38:36.900Z,9.00
2018-02-14T10:39:36.872Z,9.10
2018-02-14T10:40:36.854Z,9.20
2018-02-14T10:41:36.841Z,9.10
2018-02-14T10:42:36.830Z,9.10
2018-02-14T10:43:36.803Z,8.50
2018-02-14T10:44:36.785Z,9.20
2018-02-14T10:45:36.775Z,9.30
2018-02-14T10:46:36.753Z,8.60
2018-02-14T10:47:36.764Z,9.00
2018-02-14T10:48:36.727Z,9.20
2018-02-14T10:49:36.702Z,8.80
2018-02-14T10:50:36.698Z,8.20
2018-02-14T10:51:36.671Z,8.70
2018-02-14T10:52:36.652Z,9.10
2018-02-14T10:53:36.635Z,9.10
2018-02-14T10:54:36.624Z,8.40
2018-02-14T10:55:36.600Z,8.50
2018-02-14T10:56:36.579Z,8.90
2018-02-14T10:57:36.563Z,9.10
2018-02-14T10:58:36.549Z,8.50
2018-02-14T10:59:36.544Z,8.40
2018-02-14T11:00:36.511Z,8.40
2018-02-14T11:01:36.501Z,8.70
2018-02-14T11:02:36.481Z,8.60
2018-02-14T11:03:36.457Z,8.90
2018-02-14T11:04:36.440Z,8.50
2018-02-14T11:05:36.423Z,8.80
2018-02-14T11:06:36.407Z,8.20
2018-02-14T11:07:36.388Z,8.80
2018-02-14T11:08:36.417Z,8.00
2018-02-14T11:09:36.363Z,8.30
2018-02-14T11:10:36.346Z,8.00
2018-02-14T11:11:36.334Z,8.70
2018-02-14T11:12:36.299Z,8.20
2018-02-14T11:13:36.279Z,7.80
2018-02-14T11:14:36.262Z,8.10
2018-02-14T11:15:36.261Z,7.60
2018-02-14T11:16:36.226Z,8.10
2018-02-14T11:17:36.207Z,8.80
2018-02-14T11:18:36.186Z,9.10
2018-02-14T11:19:36.174Z,8.30
2018-02-14T11:20:36.149Z,8.50
2018-02-14T11:21:36.132Z,8.30
2018-02-14T11:22:36.123Z,8.10
2018-02-14T11:23:36.095Z,8.10
2018-02-14T11:24:36.075Z,8.60
2018-02-14T11:25:36.095Z,8.10
2018-02-14T11:26:36.035Z,8.00
2018-02-14T11:27:36.017Z,8.50
2018-02-14T11:28:35.997Z,8.30
2018-02-14T11:29:35.981Z,8.70
2018-02-14T11:30:35.972Z,8.80
2018-02-14T11:31:35.947Z,7.60
2018-02-14T11:32:35.918Z,8.00
2018-02-14T11:33:35.915Z,8.10
2018-02-14T11:34:35.884Z,7.50
2018-02-14T11:35:35.871Z,7.90
2018-02-14T11:36:35.854Z,8.90
2018-02-14T11:37:35.818Z,8.00
2018-02-14T11:38:35.806Z,8.50
2018-02-14T11:39:35.783Z,8.40
2018-02-14T11:40:35.760Z,8.50
2018-02-14T11:41:35.747Z,7.90
2018-02-14T11:42:35.727Z,7.90
2018-02-14T11:43:35.698Z,7.80
2018-02-14T11:44:35.677Z,8.90
2018-02-14T11:45:35.663Z,7.30
2018-02-14T11:46:35.637Z,8.50
2018-02-14T11:47:35.623Z,7.70
2018-02-14T11:48:35.601Z,7.70
2018-02-14T11:49:35.579Z,7.60
2018-02-14T11:50:35.556Z,7.50
2018-02-14T11:51:35.539Z,7.30
2018-02-14T11:52:35.516Z,7.20
2018-02-14T11:53:35.494Z,8.00
2018-02-14T11:54:35.476Z,7.40
2018-02-14T11:55:35.574Z,7.80
2018-02-14T11:56:35.435Z,8.70
2018-02-14T11:57:35.429Z,7.50
2018-02-14T11:58:35.399Z,7.90
2018-02-14T11:59:35.377Z,7.30
2018-02-14T12:00:35.350Z,7.20
2018-02-14T12:01:35.329Z,7.00
2018-02-14T12:02:35.316Z,7.00
2018-02-14T12:03:35.294Z,6.30
2018-02-14T12:04:35.267Z,6.30
2018-02-14T12:05:35.245Z,6.00
2018-02-14T12:06:35.239Z,5.70
2018-02-14T12:07:35.216Z,6.00
2018-02-14T12:08:35.197Z,4.90
2018-02-14T12:09:35.166Z,5.60
2018-02-14T12:10:35.148Z,5.70
2018-02-14T12:11:35.130Z,6.40
2018-02-14T12:12:35.101Z,6.10
2018-02-14T12:13:35.080Z,5.60
2018-02-14T12:14:35.054Z,5.50
2018-02-14T12:15:35.034Z,6.00
2018-02-14T12:16:35.010Z,5.20
2018-02-14T12:17:35.070Z,4.90
2018-02-14T12:18:34.969Z,5.90
2018-02-14T12:19:34.950Z,5.70
2018-02-14T12:20:34.922Z,5.10
2018-02-14T12:21:34.902Z,4.70
2018-02-14T12:22:34.882Z,5.40
2018-02-14T12:23:34.857Z,5.90
2018-02-14T12:24:34.837Z,6.10
2018-02-14T12:25:34.876Z,5.90
2018-02-14T12:26:34.790Z,6.00
2018-02-14T12:27:34.776Z,5.70
2018-02-14T12:28:34.762Z,4.90
2018-02-14T12:29:34.722Z,5.40
2018-02-14T12:30:34.710Z,4.70
2018-02-14T12:31:34.686Z,5.20
2018-02-14T12:32:34.656Z,5.50
2018-02-14T12:33:34.644Z,5.60
2018-02-14T12:34:34.612Z,5.50
2018-02-14T12:35:34.588Z,5.30
2018-02-14T12:36:34.573Z,5.80
2018-02-14T12:37:34.545Z,5.40
2018-02-14T12:38:34.528Z,5.90
2018-02-14T12:39:34.499Z,5.00
2018-02-14T12:40:34.474Z,5.50
2018-02-14T12:41:34.460Z,5.80
2018-02-14T12:42:34.430Z,5.50
2018-02-14T12:43:34.408Z,5.60
2018-02-14T12:44:34.384Z,5.70
2018-02-14T12:45:34.366Z,4.60
2018-02-14T12:46:34.350Z,5.40
2018-02-14T12:47:34.337Z,6.00
2018-02-14T12:48:34.328Z,5.80
2018-02-14T12:49:34.276Z,6.00
2018-02-14T12:50:34.417Z,6.60
2018-02-14T12:51:34.227Z,5.50
2018-02-14T12:52:34.207Z,6.20
2018-02-14T12:53:34.208Z,5.00
2018-02-14T12:54:34.168Z,5.70
2018-02-14T12:55:34.137Z,5.90
2018-02-14T12:56:34.115Z,6.10
2018-02-14T12:57:34.088Z,5.30
2018-02-14T12:58:34.065Z,5.60
2018-02-14T12:59:34.051Z,5.30
2018-02-14T13:00:34.024Z,5.10
2018-02-14T13:01:34.005Z,5.40
2018-02-14T13:02:33.976Z,5.50
2018-02-14T13:03:33.956Z,4.60
2018-02-14T13:04:33.934Z,5.20
2018-02-14T13:05:33.904Z,5.90
2018-02-14T13:06:33.901Z,5.80